Latest Weather Observations for Campania

IDT60901

Issued at 11:11 pm EST Thursday 2 July 2020 (issued every 10 minutes, with the page automatically refreshed every 10 minutes)

About weather observations | Map of Hobart area stations | Latest observations for Hobart area | Other Formats
Station Details ID: 094212 Name: CAMPANIA (KINCORA) Lat: -42.69 Lon: 147.43 Height: 45.0 m
Data from the previous 72 hours. | See also: Recent months at Campania
Date/Time
EST
Temp
°C
App
Temp
°C
Dew
Point
°C
Rel
Hum
%
Delta-T
°C
Wind Press
QNH
hPa
Press
MSL
hPa
Rain since
9am
mm
Dir  Spd
km/h
Gust
km/h
Spd
kts
Gust
kts
02/11:00pm 7.3 2.7 3.7 78 1.5 NNE 17 20 9 11 - - 0.0
02/10:30pm 7.1 2.8 3.3 77 1.6 NNE 15 19 8 10 - - 0.0
02/10:00pm 7.5 4.9 3.2 74 1.8 N 6 15 3 8 - - 0.0
02/09:30pm 8.2 5.5 3.5 72 2.0 N 7 13 4 7 - - 0.0
02/09:00pm 8.9 4.3 3.7 70 2.3 NNW 17 26 9 14 - - 0.0
02/08:30pm 8.3 4.5 3.9 74 1.9 NNW 13 20 7 11 - - 0.0
02/08:00pm 8.7 5.6 3.5 70 2.2 N 9 13 5 7 - - 0.0
02/07:30pm 9.0 5.2 3.8 70 2.3 N 13 24 7 13 - - 0.0
02/07:00pm 9.7 5.9 3.7 66 2.6 N 13 22 7 12 - - 0.0
02/06:30pm 10.2 5.6 3.7 64 2.9 NNW 17 30 9 16 - - 0.0
02/06:00pm 10.4 5.2 3.7 63 2.9 NNW 20 30 11 16 - - 0.0
02/05:30pm 11.1 4.4 3.6 60 3.3 NNW 28 44 15 24 - - 0.0
02/05:00pm 11.3 5.3 3.6 59 3.4 NNW 24 39 13 21 - - 0.0
02/04:31pm 11.8 5.1 3.6 57 3.6 NW 28 46 15 25 - - 0.0
02/04:30pm 11.6 4.9 3.6 58 3.6 NW 28 44 15 24 - - 0.0
02/04:13pm 12.0 5.2 3.3 55 3.9 NW 28 48 15 26 - - 0.0
02/04:00pm 12.1 6.2 3.9 57 3.7 NNW 24 44 13 24 - - 0.0
02/03:30pm 12.1 7.7 4.6 60 3.4 NNW 17 24 9 13 - - 0.0
02/03:00pm 12.7 7.1 3.6 54 4.1 NW 22 32 12 17 - - 0.0
02/02:30pm 13.0 7.5 4.2 55 4.0 NNW 22 35 12 19 - - 0.0
02/02:00pm 13.1 8.4 5.0 58 3.8 NNW 19 35 10 19 - - 0.0
02/01:30pm 12.4 6.9 4.1 57 3.8 NW 22 33 12 18 - - 0.0
02/01:00pm 12.6 6.5 4.6 58 3.7 NW 26 39 14 21 - - 0.0
02/12:30pm 12.7 7.3 4.4 57 3.8 NW 22 35 12 19 - - 0.0
02/12:00pm 12.7 7.9 5.6 62 3.3 NNW 20 32 11 17 - - 0.0
02/11:30am 12.4 7.7 6.0 65 3.0 NW 20 30 11 16 - - 0.0
02/11:00am 12.2 7.7 6.3 67 2.8 NW 19 28 10 15 - - 0.0
02/10:30am 10.0 7.4 6.2 77 1.8 N 9 13 5 7 - - 0.0
02/10:00am 9.5 6.5 6.0 79 1.6 N 11 19 6 10 - - 0.0
02/09:30am 8.9 6.4 6.5 85 1.1 N 9 11 5 6 - - 0.0
02/09:00am 8.9 6.0 6.7 86 1.0 N 11 15 6 8 - - 6.4
02/08:30am 8.7 6.3 7.2 90 0.7 NNW 9 13 5 7 - - 6.2
02/08:00am 9.5 7.0 6.6 82 1.4 NNW 9 17 5 9 - - 5.6
02/07:30am 9.9 5.7 7.3 84 1.2 NW 19 28 10 15 - - 5.0
02/07:00am 10.4 6.8 8.5 88 0.9 WNW 17 22 9 12 - - 2.2
02/06:30am 11.8 8.1 7.9 77 1.9 NNW 17 24 9 13 - - 0.0
02/06:00am 12.0 6.4 7.3 73 2.3 N 26 37 14 20 - - 0.0
02/05:30am 11.8 6.6 7.3 74 2.2 N 24 35 13 19 - - 0.0
02/05:00am 11.0 7.9 7.3 78 1.8 N 13 19 7 10 - - 0.0
02/04:30am 11.3 9.3 7.2 76 2.0 N 7 15 4 8 - - 0.0
02/04:00am 11.0 7.1 7.1 77 1.9 N 17 24 9 13 - - 0.0
02/03:30am 11.6 6.3 6.9 73 2.2 N 24 33 13 18 - - 0.0
02/03:00am 11.9 6.3 7.2 73 2.3 N 26 37 14 20 - - 0.0
02/02:30am 12.6 7.3 6.6 67 2.9 N 24 32 13 17 - - 0.0
02/02:00am 12.8 7.0 6.2 64 3.1 N 26 39 14 21 - - 0.0
02/01:30am 12.8 8.0 5.5 61 3.4 N 20 26 11 14 - - 0.0
02/01:19am 12.6 8.5 6.0 64 3.1 N 17 26 9 14 - - 0.0
02/01:00am 7.6 4.4 4.9 83 1.2 NNE 11 17 6 9 - - 0.0
02/12:30am 6.4 3.5 4.7 89 0.7 NNE 9 15 5 8 - - 0.0
02/12:00am 6.4 5.0 5.4 93 0.4 N 2 7 1 4 - - 0.0
 
Date/Time
EST
Temp
°C
App
Temp
°C
Dew
Point
°C
Rel
Hum
%
Delta-T
°C
Wind Press
QNH
hPa
Press
MSL
hPa
Rain since
9am
mm
Dir  Spd
km/h
Gust
km/h
Spd
kts
Gust
kts
01/11:30pm 7.8 5.7 5.9 88 0.9 N 6 9 3 5 - - 0.0
01/11:00pm 6.1 3.9 5.1 93 0.4 NE 6 13 3 7 - - 0.0
01/10:30pm 5.1 3.1 4.4 95 0.3 N 4 7 2 4 - - 0.0
01/10:00pm 4.7 2.9 3.7 93 0.4 N 2 9 1 5 - - 0.0
01/09:30pm 5.7 3.2 4.7 93 0.4 NNW 7 11 4 6 - - 0.0
01/09:00pm 6.1 4.9 4.7 91 0.6 CALM 0 0 0 0 - - 0.0
01/08:30pm 5.8 4.4 3.6 86 0.9 CALM 0 6 0 3 - - 0.0
01/08:00pm 8.0 5.5 4.8 80 1.4 NNE 7 15 4 8 - - 0.0
01/07:30pm 10.1 6.8 6.4 78 1.7 N 13 17 7 9 - - 0.0
01/07:00pm 10.5 6.1 6.6 77 1.8 NNE 19 24 10 13 - - 0.0
01/06:30pm 9.1 7.8 6.0 81 1.4 NNE 2 7 1 4 - - 0.0
01/06:00pm 11.2 8.3 6.5 73 2.2 NE 11 17 6 9 - - 0.0
01/05:30pm 10.7 7.5 6.8 77 1.8 NNE 13 15 7 8 - - 0.0
01/05:00pm 11.1 8.6 6.6 74 2.1 NNE 9 11 5 6 - - 0.0
01/04:30pm 12.4 9.3 7.1 70 2.6 N 13 19 7 10 - - 0.0
01/04:00pm 12.7 9.6 7.4 70 2.6 N 13 20 7 11 - - 0.0
01/03:30pm 13.4 10.0 7.6 68 2.9 N 15 20 8 11 - - 0.0
01/03:00pm 13.8 10.0 7.6 66 3.1 N 17 20 9 11 - - 0.0
01/02:30pm 14.2 9.0 7.3 63 3.4 N 24 30 13 16 - - 0.0
01/02:00pm 14.1 8.9 7.2 63 3.4 N 24 32 13 17 - - 0.0
01/01:30pm 13.9 8.4 7.7 66 3.1 N 26 33 14 18 - - 0.0
01/01:00pm 13.5 9.1 7.5 67 2.9 N 20 32 11 17 - - 0.0
01/12:30pm 12.9 7.3 7.1 68 2.8 N 26 33 14 18 - - 0.0
01/12:00pm 12.7 6.4 7.4 70 2.6 N 30 44 16 24 - - 0.0
01/11:30am 13.2 9.0 7.4 68 2.8 N 19 28 10 15 - - 0.0
01/11:00am 12.5 10.0 8.2 75 2.1 NE 11 17 6 9 - - 0.0
01/10:30am 11.6 8.1 7.3 75 2.1 N 15 19 8 10 - - 0.0
01/10:00am 10.4 6.9 7.1 80 1.6 NNE 15 20 8 11 - - 0.0
01/09:30am 9.7 5.2 6.2 79 1.6 N 19 28 10 15 - - 0.0
01/09:00am 7.3 5.2 5.9 91 0.6 NNE 6 9 3 5 - - 0.0
01/08:30am 5.6 4.0 4.6 93 0.4 NE 2 9 1 5 - - 0.0
01/08:00am 3.6 0.5 3.5 99 0.0 N 9 13 5 7 - - 0.0
01/07:30am 2.4 -0.6 2.1 98 0.1 N 7 11 4 6 - - 0.0
01/07:00am 1.4 -0.8 1.0 97 0.2 NNW 2 9 1 5 - - 0.0
01/06:30am 1.8 -1.3 1.4 97 0.2 N 7 7 4 4 - - 0.0
01/06:00am 1.6 -1.4 1.0 96 0.2 N 6 11 3 6 - - 0.0
01/05:30am 2.1 -0.4 1.5 96 0.2 N 4 9 2 5 - - 0.0
01/05:00am 2.1 -0.8 1.7 97 0.2 NNW 6 9 3 5 - - 0.0
01/04:30am 2.4 0.3 1.8 96 0.2 WNW 2 7 1 4 - - 0.0
01/04:00am 2.2 -0.7 1.3 94 0.3 WNW 6 9 3 5 - - 0.0
01/03:30am 3.1 0.7 2.2 94 0.4 N 4 7 2 4 - - 0.0
01/03:00am 3.4 1.7 2.1 91 0.5 CALM 0 6 0 3 - - 0.0
01/02:30am 4.4 1.6 2.9 90 0.6 NNW 7 11 4 6 - - 0.0
01/02:00am 7.2 2.8 4.7 84 1.1 N 17 20 9 11 - - 0.0
01/01:30am 5.5 1.4 4.3 92 0.5 N 15 17 8 9 - - 0.0
01/01:00am 7.5 4.0 5.3 86 1.0 NNW 13 19 7 10 - - 0.0
01/12:30am 5.8 2.1 4.4 91 0.6 N 13 17 7 9 - - 0.0
01/12:00am 6.5 2.9 5.0 90 0.7 NNW 13 19 7 10 - - 0.0
 
Date/Time
EST
Temp
°C
App
Temp
°C
Dew
Point
°C
Rel
Hum
%
Delta-T
°C
Wind Press
QNH
hPa
Press
MSL
hPa
Rain since
9am
mm
Dir  Spd
km/h
Gust
km/h
Spd
kts
Gust
kts
30/11:30pm 6.1 2.7 4.1 87 0.9 N 11 13 6 7 - - 0.0
30/11:00pm 8.5 5.8 5.8 83 1.2 NNW 9 13 5 7 - - 0.0
30/10:30pm 9.0 6.4 6.3 83 1.2 N 9 17 5 9 - - 0.0
30/10:00pm 8.5 6.3 6.1 85 1.1 N 7 15 4 8 - - 0.0
30/09:30pm 8.3 5.7 5.9 85 1.1 NNW 9 15 5 8 - - 0.0
30/09:00pm 7.1 4.8 5.6 90 0.7 N 7 11 4 6 - - 0.0
30/08:30pm 7.0 4.3 5.6 91 0.6 N 9 13 5 7 - - 0.0
30/08:00pm 7.4 4.3 5.7 89 0.8 NE 11 13 6 7 - - 0.0
30/07:30pm 7.6 4.5 5.7 88 0.9 NNE 11 13 6 7 - - 0.0
30/07:00pm 7.8 4.8 5.9 88 0.9 NNE 11 13 6 7 - - 0.0
30/06:30pm 7.7 4.6 5.7 87 0.9 N 11 13 6 7 - - 0.0
30/06:00pm 7.1 4.3 5.3 88 0.8 NNW 9 11 5 6 - - 0.0
30/05:30pm 8.1 5.9 5.2 82 1.3 N 6 7 3 4 - - 0.0
30/05:00pm 9.2 6.8 5.2 76 1.8 NNE 7 11 4 6 - - 0.0
30/04:30pm 10.5 7.0 5.3 70 2.4 N 13 19 7 10 - - 0.0
30/04:00pm 11.7 6.9 4.9 63 3.1 N 19 26 10 14 - - 0.0
30/03:30pm 12.1 7.1 4.8 61 3.3 N 20 30 11 16 - - 0.0
30/03:00pm 13.1 7.3 4.5 56 3.9 N 24 35 13 19 - - 0.0
30/02:30pm 13.5 7.9 5.4 58 3.8 N 24 35 13 19 - - 0.0
30/02:00pm 12.2 8.1 6.0 66 2.9 N 17 22 9 12 - - 0.0
30/01:30pm 11.9 9.3 6.2 68 2.7 N 9 15 5 8 - - 0.0
30/01:00pm 12.2 7.6 5.8 65 3.0 N 19 26 10 14 - - 0.0
30/12:30pm 11.7 9.0 5.6 66 2.8 NNW 9 13 5 7 - - 0.0
30/12:00pm 11.1 8.7 5.4 68 2.6 N 7 11 4 6 - - 0.0
30/11:30am 10.8 7.7 5.6 70 2.4 NNW 11 15 6 8 - - 0.0
30/11:00am 10.2 6.8 6.0 75 1.9 NNW 13 17 7 9 - - 0.0
30/10:30am 9.2 7.0 6.1 81 1.4 N 7 11 4 6 - - 0.0
30/10:00am 8.6 5.5 5.4 80 1.4 N 11 19 6 10 - - 0.0
30/09:30am 7.4 4.2 5.0 85 1.1 N 11 15 6 8 - - 0.0
30/09:00am 7.0 3.4 5.0 87 0.9 NNW 13 15 7 8 - - 0.2
30/08:30am 5.2 1.4 4.0 92 0.5 NNW 13 17 7 9 - - 0.2
30/08:00am 3.8 0.2 3.1 95 0.3 NNW 11 13 6 7 - - 0.2
30/07:30am 4.3 0.8 3.6 95 0.3 NW 11 15 6 8 - - 0.2
30/07:00am 5.1 0.8 3.4 89 0.7 NNW 15 20 8 11 - - 0.0
30/06:30am 5.1 2.7 4.1 93 0.4 NNW 6 9 3 5 - - 0.0
30/06:00am 5.7 2.4 4.3 91 0.6 NNW 11 15 6 8 - - 0.0
30/05:30am 5.5 3.0 4.6 94 0.4 N 7 11 4 6 - - 0.0
30/05:00am 4.9 1.6 4.6 98 0.1 N 11 15 6 8 - - 0.0
30/04:30am 3.2 0.4 3.2 100 0.0 N 7 13 4 7 - - 0.0
30/04:00am 1.7 -1.4 1.6 99 0.0 N 7 9 4 5 - - 0.0
30/03:30am 2.0 -1.0 1.9 99 0.0 N 7 9 4 5 - - 0.0
30/03:00am 2.9 -0.3 2.9 100 0.0 N 9 13 5 7 - - 0.0
30/02:30am 2.1 -0.9 2.0 99 0.0 N 7 9 4 5 - - 0.0
30/02:00am 2.2 -0.8 2.1 99 0.0 N 7 11 4 6 - - 0.0
30/01:30am 2.7 -0.6 2.4 98 0.1 N 9 11 5 6 - - 0.0
30/01:00am 2.9 0.0 2.6 98 0.1 N 7 11 4 6 - - 0.0
30/12:30am 2.7 -0.7 2.1 96 0.2 N 9 13 5 7 - - 0.0
30/12:00am 3.3 0.4 2.7 96 0.2 N 7 11 4 6 - - 0.0
 
Date/Time
EST
Temp
°C
App
Temp
°C
Dew
Point
°C
Rel
Hum
%
Delta-T
°C
Wind Press
QNH
hPa
Press
MSL
hPa
Rain since
9am
mm
Dir  Spd
km/h
Gust
km/h
Spd
kts
Gust
kts
29/11:30pm 4.6 1.9 3.9 95 0.3 N 7 11 4 6 - - 0.0

Latest Capital City Observations: Canberra | Sydney | Melbourne | Brisbane | Adelaide | Perth | Hobart | Darwin

Other formats

Comma delimited format used in spreadsheet applications
http://www.bom.gov.au/fwo/IDT60901/IDT60901.95972.axf

JavaScript Object Notation format (JSON) in row-major order
http://www.bom.gov.au/fwo/IDT60901/IDT60901.95972.json

Data quality

Most of these data are generated automatically and are frequently updated. Quality checks on data are not normally performed. It is possible for incorrect values to appear. Refer to information at About Latest Weather Observations and please check the disclaimer before using these data.